sensor_id;sensor_type;location;lat;lon;timestamp;P1;durP1;ratioP1;P2;durP2;ratioP2
46551;SDS011;32278;51.810;4.712;2023-04-01T00:02:20;36.42;;;10.80;;
46551;SDS011;32278;51.810;4.712;2023-04-01T00:04:46;48.35;;;11.82;;
46551;SDS011;32278;51.810;4.712;2023-04-01T00:07:12;54.15;;;11.35;;
46551;SDS011;32278;51.810;4.712;2023-04-01T00:09:38;48.10;;;10.60;;
46551;SDS011;32278;51.810;4.712;2023-04-01T00:12:04;50.05;;;12.30;;
46551;SDS011;32278;51.810;4.712;2023-04-01T00:14:30;64.05;;;15.05;;
46551;SDS011;32278;51.810;4.712;2023-04-01T00:16:56;62.20;;;14.73;;
46551;SDS011;32278;51.810;4.712;2023-04-01T00:19:22;66.22;;;16.48;;
46551;SDS011;32278;51.810;4.712;2023-04-01T00:21:48;76.68;;;17.00;;
46551;SDS011;32278;51.810;4.712;2023-04-01T00:24:14;86.28;;;16.15;;
46551;SDS011;32278;51.810;4.712;2023-04-01T00:26:41;77.93;;;16.02;;
46551;SDS011;32278;51.810;4.712;2023-04-01T00:29:08;87.47;;;16.23;;
46551;SDS011;32278;51.810;4.712;2023-04-01T00:31:34;84.05;;;17.13;;
46551;SDS011;32278;51.810;4.712;2023-04-01T00:34:00;78.75;;;17.00;;
46551;SDS011;32278;51.810;4.712;2023-04-01T00:36:27;72.30;;;16.73;;
46551;SDS011;32278;51.810;4.712;2023-04-01T00:38:53;74.25;;;15.57;;
46551;SDS011;32278;51.810;4.712;2023-04-01T00:41:19;76.03;;;15.27;;
46551;SDS011;32278;51.810;4.712;2023-04-01T00:43:47;84.90;;;16.30;;
46551;SDS011;32278;51.810;4.712;2023-04-01T00:46:14;75.57;;;15.02;;
46551;SDS011;32278;51.810;4.712;2023-04-01T00:48:53;75.57;;;15.07;;
46551;SDS011;32278;51.810;4.712;2023-04-01T00:51:25;65.25;;;12.30;;
46551;SDS011;32278;51.810;4.712;2023-04-01T00:53:53;64.70;;;13.23;;
46551;SDS011;32278;51.810;4.712;2023-04-01T00:56:54;57.22;;;13.43;;
46551;SDS011;32278;51.810;4.712;2023-04-01T00:59:16;72.55;;;15.02;;
46551;SDS011;32278;51.810;4.712;2023-04-01T01:01:43;71.05;;;15.60;;
46551;SDS011;32278;51.810;4.712;2023-04-01T01:12:41;61.38;;;12.95;;
46551;SDS011;32278;51.810;4.712;2023-04-01T01:23:14;81.70;;;13.40;;
46551;SDS011;32278;51.810;4.712;2023-04-01T01:30:56;51.75;;;11.23;;
46551;SDS011;32278;51.810;4.712;2023-04-01T01:33:34;64.18;;;13.02;;
46551;SDS011;32278;51.810;4.712;2023-04-01T01:36:02;53.15;;;12.80;;
46551;SDS011;32278;51.810;4.712;2023-04-01T01:38:31;38.72;;;10.50;;
46551;SDS011;32278;51.810;4.712;2023-04-01T01:40:58;46.53;;;9.32;;
46551;SDS011;32278;51.810;4.712;2023-04-01T01:43:25;50.40;;;11.35;;
46551;SDS011;32278;51.810;4.712;2023-04-01T01:45:54;50.75;;;10.80;;
46551;SDS011;32278;51.810;4.712;2023-04-01T01:48:21;59.15;;;14.02;;
46551;SDS011;32278;51.810;4.712;2023-04-01T01:50:48;52.28;;;11.32;;
46551;SDS011;32278;51.810;4.712;2023-04-01T01:53:15;52.53;;;12.43;;
46551;SDS011;32278;51.810;4.712;2023-04-01T01:55:42;44.65;;;11.80;;
46551;SDS011;32278;51.810;4.712;2023-04-01T02:00:59;49.67;;;10.32;;
46551;SDS011;32278;51.810;4.712;2023-04-01T02:03:27;46.40;;;11.02;;
46551;SDS011;32278;51.810;4.712;2023-04-01T02:05:55;42.63;;;10.80;;
46551;SDS011;32278;51.810;4.712;2023-04-01T02:08:28;41.75;;;10.02;;
46551;SDS011;32278;51.810;4.712;2023-04-01T02:10:58;50.40;;;10.38;;
46551;SDS011;32278;51.810;4.712;2023-04-01T02:16:13;46.60;;;10.98;;
46551;SDS011;32278;51.810;4.712;2023-04-01T02:18:39;49.60;;;11.52;;
46551;SDS011;32278;51.810;4.712;2023-04-01T02:21:05;34.25;;;11.35;;
46551;SDS011;32278;51.810;4.712;2023-04-01T02:23:33;42.05;;;11.68;;
46551;SDS011;32278;51.810;4.712;2023-04-01T02:26:00;52.67;;;12.60;;
46551;SDS011;32278;51.810;4.712;2023-04-01T02:28:26;51.75;;;12.88;;
46551;SDS011;32278;51.810;4.712;2023-04-01T02:30:52;47.55;;;13.75;;
46551;SDS011;32278;51.810;4.712;2023-04-01T02:33:18;62.40;;;13.75;;
46551;SDS011;32278;51.810;4.712;2023-04-01T02:35:45;39.78;;;12.50;;
46551;SDS011;32278;51.810;4.712;2023-04-01T02:38:12;56.20;;;13.45;;
46551;SDS011;32278;51.810;4.712;2023-04-01T02:40:44;43.97;;;12.95;;
46551;SDS011;32278;51.810;4.712;2023-04-01T02:43:11;40.90;;;12.88;;
46551;SDS011;32278;51.810;4.712;2023-04-01T02:45:37;44.58;;;11.15;;
46551;SDS011;32278;51.810;4.712;2023-04-01T02:48:03;32.15;;;10.65;;
46551;SDS011;32278;51.810;4.712;2023-04-01T02:50:29;35.90;;;10.55;;
46551;SDS011;32278;51.810;4.712;2023-04-01T02:52:55;33.88;;;8.45;;
46551;SDS011;32278;51.810;4.712;2023-04-01T02:55:21;38.17;;;9.60;;
46551;SDS011;32278;51.810;4.712;2023-04-01T02:57:47;46.15;;;10.20;;
46551;SDS011;32278;51.810;4.712;2023-04-01T03:00:13;29.85;;;8.43;;
46551;SDS011;32278;51.810;4.712;2023-04-01T03:02:39;35.03;;;10.00;;
46551;SDS011;32278;51.810;4.712;2023-04-01T03:05:06;18.08;;;8.65;;
46551;SDS011;32278;51.810;4.712;2023-04-01T03:07:32;22.05;;;6.68;;
46551;SDS011;32278;51.810;4.712;2023-04-01T03:09:58;24.75;;;6.75;;
46551;SDS011;32278;51.810;4.712;2023-04-01T03:12:24;21.15;;;6.07;;
46551;SDS011;32278;51.810;4.712;2023-04-01T03:14:50;26.27;;;6.60;;
46551;SDS011;32278;51.810;4.712;2023-04-01T03:17:16;26.80;;;6.47;;
46551;SDS011;32278;51.810;4.712;2023-04-01T03:19:42;20.25;;;6.03;;
46551;SDS011;32278;51.810;4.712;2023-04-01T03:22:09;18.77;;;6.00;;
46551;SDS011;32278;51.810;4.712;2023-04-01T03:24:36;14.73;;;5.45;;
46551;SDS011;32278;51.810;4.712;2023-04-01T03:27:02;20.70;;;4.63;;
46551;SDS011;32278;51.810;4.712;2023-04-01T03:29:28;13.15;;;5.00;;
46551;SDS011;32278;51.810;4.712;2023-04-01T03:31:54;15.63;;;4.32;;
46551;SDS011;32278;51.810;4.712;2023-04-01T03:34:22;14.88;;;4.22;;
46551;SDS011;32278;51.810;4.712;2023-04-01T03:36:48;11.88;;;4.53;;
46551;SDS011;32278;51.810;4.712;2023-04-01T03:39:16;10.63;;;4.38;;
46551;SDS011;32278;51.810;4.712;2023-04-01T03:41:43;13.38;;;4.82;;
46551;SDS011;32278;51.810;4.712;2023-04-01T03:44:10;14.10;;;5.38;;
46551;SDS011;32278;51.810;4.712;2023-04-01T03:46:36;12.40;;;5.60;;
46551;SDS011;32278;51.810;4.712;2023-04-01T03:49:02;15.95;;;6.05;;
46551;SDS011;32278;51.810;4.712;2023-04-01T03:51:28;20.73;;;7.32;;
46551;SDS011;32278;51.810;4.712;2023-04-01T03:53:54;12.90;;;6.55;;
46551;SDS011;32278;51.810;4.712;2023-04-01T03:56:20;19.73;;;8.23;;
46551;SDS011;32278;51.810;4.712;2023-04-01T03:58:46;16.27;;;7.97;;
46551;SDS011;32278;51.810;4.712;2023-04-01T04:01:13;20.58;;;9.73;;
46551;SDS011;32278;51.810;4.712;2023-04-01T04:03:39;21.23;;;9.55;;
46551;SDS011;32278;51.810;4.712;2023-04-01T04:06:07;19.70;;;8.95;;
46551;SDS011;32278;51.810;4.712;2023-04-01T04:08:35;25.33;;;10.27;;
46551;SDS011;32278;51.810;4.712;2023-04-01T04:11:01;31.70;;;11.88;;
46551;SDS011;32278;51.810;4.712;2023-04-01T04:13:27;31.67;;;12.32;;
46551;SDS011;32278;51.810;4.712;2023-04-01T04:15:53;27.02;;;11.52;;
46551;SDS011;32278;51.810;4.712;2023-04-01T04:18:19;42.17;;;12.10;;
46551;SDS011;32278;51.810;4.712;2023-04-01T04:20:46;30.67;;;11.65;;
46551;SDS011;32278;51.810;4.712;2023-04-01T04:23:15;38.92;;;10.60;;
46551;SDS011;32278;51.810;4.712;2023-04-01T04:25:40;33.70;;;10.35;;
46551;SDS011;32278;51.810;4.712;2023-04-01T04:28:06;33.63;;;10.98;;
46551;SDS011;32278;51.810;4.712;2023-04-01T04:30:32;30.90;;;9.88;;
46551;SDS011;32278;51.810;4.712;2023-04-01T04:32:58;33.83;;;11.77;;
46551;SDS011;32278;51.810;4.712;2023-04-01T04:35:24;32.40;;;11.82;;
46551;SDS011;32278;51.810;4.712;2023-04-01T04:37:50;38.83;;;11.57;;
46551;SDS011;32278;51.810;4.712;2023-04-01T04:40:16;43.60;;;12.35;;
46551;SDS011;32278;51.810;4.712;2023-04-01T04:42:42;37.33;;;10.07;;
46551;SDS011;32278;51.810;4.712;2023-04-01T04:45:08;43.30;;;12.35;;
46551;SDS011;32278;51.810;4.712;2023-04-01T04:47:35;49.13;;;12.95;;
46551;SDS011;32278;51.810;4.712;2023-04-01T04:50:00;48.30;;;13.85;;
46551;SDS011;32278;51.810;4.712;2023-04-01T04:52:26;37.33;;;12.02;;
46551;SDS011;32278;51.810;4.712;2023-04-01T04:54:52;38.70;;;11.82;;
46551;SDS011;32278;51.810;4.712;2023-04-01T04:57:18;45.67;;;12.70;;
46551;SDS011;32278;51.810;4.712;2023-04-01T04:59:44;46.75;;;11.73;;
46551;SDS011;32278;51.810;4.712;2023-04-01T05:02:10;36.70;;;11.32;;
46551;SDS011;32278;51.810;4.712;2023-04-01T05:04:36;38.55;;;12.45;;
46551;SDS011;32278;51.810;4.712;2023-04-01T05:07:02;34.80;;;10.98;;
46551;SDS011;32278;51.810;4.712;2023-04-01T05:09:28;35.42;;;11.20;;
46551;SDS011;32278;51.810;4.712;2023-04-01T05:11:55;36.33;;;10.70;;
46551;SDS011;32278;51.810;4.712;2023-04-01T05:14:21;28.52;;;10.55;;
46551;SDS011;32278;51.810;4.712;2023-04-01T05:16:47;42.33;;;11.13;;
46551;SDS011;32278;51.810;4.712;2023-04-01T05:19:14;41.13;;;12.73;;
46551;SDS011;32278;51.810;4.712;2023-04-01T05:21:40;32.70;;;11.43;;
46551;SDS011;32278;51.810;4.712;2023-04-01T05:24:09;37.28;;;12.27;;
46551;SDS011;32278;51.810;4.712;2023-04-01T05:26:35;34.95;;;11.00;;
46551;SDS011;32278;51.810;4.712;2023-04-01T05:29:02;36.08;;;11.48;;
46551;SDS011;32278;51.810;4.712;2023-04-01T05:31:28;36.42;;;11.85;;
46551;SDS011;32278;51.810;4.712;2023-04-01T05:33:54;39.53;;;13.10;;
46551;SDS011;32278;51.810;4.712;2023-04-01T05:36:20;37.25;;;13.30;;
46551;SDS011;32278;51.810;4.712;2023-04-01T05:38:47;44.70;;;13.63;;
46551;SDS011;32278;51.810;4.712;2023-04-01T05:41:14;38.75;;;15.20;;
46551;SDS011;32278;51.810;4.712;2023-04-01T05:43:40;42.72;;;14.23;;
46551;SDS011;32278;51.810;4.712;2023-04-01T05:46:07;38.92;;;13.50;;
46551;SDS011;32278;51.810;4.712;2023-04-01T05:48:33;34.83;;;14.13;;
46551;SDS011;32278;51.810;4.712;2023-04-01T05:51:03;39.35;;;14.27;;
46551;SDS011;32278;51.810;4.712;2023-04-01T05:53:29;37.92;;;12.90;;
46551;SDS011;32278;51.810;4.712;2023-04-01T05:55:55;34.80;;;13.77;;
46551;SDS011;32278;51.810;4.712;2023-04-01T05:58:21;31.58;;;12.00;;
46551;SDS011;32278;51.810;4.712;2023-04-01T06:00:47;36.35;;;13.40;;
46551;SDS011;32278;51.810;4.712;2023-04-01T06:03:13;38.30;;;15.65;;
46551;SDS011;32278;51.810;4.712;2023-04-01T06:05:40;41.92;;;14.20;;
46551;SDS011;32278;51.810;4.712;2023-04-01T06:08:13;38.47;;;14.18;;
46551;SDS011;32278;51.810;4.712;2023-04-01T06:11:45;40.10;;;15.57;;
46551;SDS011;32278;51.810;4.712;2023-04-01T06:16:27;39.67;;;16.40;;
46551;SDS011;32278;51.810;4.712;2023-04-01T06:19:12;41.40;;;14.45;;
46551;SDS011;32278;51.810;4.712;2023-04-01T06:24:39;42.15;;;17.15;;
46551;SDS011;32278;51.810;4.712;2023-04-01T06:27:16;48.50;;;17.27;;
46551;SDS011;32278;51.810;4.712;2023-04-01T06:29:57;45.00;;;16.88;;
46551;SDS011;32278;51.810;4.712;2023-04-01T06:35:02;42.55;;;16.13;;
46551;SDS011;32278;51.810;4.712;2023-04-01T06:37:38;46.42;;;15.88;;
46551;SDS011;32278;51.810;4.712;2023-04-01T06:42:36;46.80;;;14.75;;
46551;SDS011;32278;51.810;4.712;2023-04-01T06:57:58;29.67;;;14.15;;
46551;SDS011;32278;51.810;4.712;2023-04-01T07:00:32;40.30;;;16.98;;
46551;SDS011;32278;51.810;4.712;2023-04-01T07:03:10;45.50;;;16.73;;
46551;SDS011;32278;51.810;4.712;2023-04-01T07:05:39;42.10;;;16.08;;
46551;SDS011;32278;51.810;4.712;2023-04-01T07:08:06;37.22;;;13.85;;
46551;SDS011;32278;51.810;4.712;2023-04-01T07:10:43;39.78;;;14.93;;
46551;SDS011;32278;51.810;4.712;2023-04-01T07:13:20;43.92;;;15.23;;
46551;SDS011;32278;51.810;4.712;2023-04-01T07:18:38;43.90;;;16.20;;
46551;SDS011;32278;51.810;4.712;2023-04-01T07:21:10;36.63;;;16.80;;
46551;SDS011;32278;51.810;4.712;2023-04-01T07:23:40;42.00;;;16.40;;
46551;SDS011;32278;51.810;4.712;2023-04-01T07:26:14;43.88;;;16.38;;
46551;SDS011;32278;51.810;4.712;2023-04-01T07:28:41;34.20;;;14.38;;
46551;SDS011;32278;51.810;4.712;2023-04-01T07:31:11;36.67;;;15.88;;
46551;SDS011;32278;51.810;4.712;2023-04-01T07:33:42;44.03;;;17.42;;
46551;SDS011;32278;51.810;4.712;2023-04-01T07:36:16;40.63;;;14.48;;
46551;SDS011;32278;51.810;4.712;2023-04-01T07:38:53;37.10;;;15.57;;
46551;SDS011;32278;51.810;4.712;2023-04-01T07:41:28;37.22;;;14.35;;
46551;SDS011;32278;51.810;4.712;2023-04-01T07:44:01;40.45;;;14.13;;
46551;SDS011;32278;51.810;4.712;2023-04-01T07:49:25;33.58;;;13.00;;
46551;SDS011;32278;51.810;4.712;2023-04-01T07:51:57;36.83;;;13.65;;
46551;SDS011;32278;51.810;4.712;2023-04-01T07:54:28;31.42;;;12.60;;
46551;SDS011;32278;51.810;4.712;2023-04-01T08:07:31;27.83;;;11.57;;
46551;SDS011;32278;51.810;4.712;2023-04-01T08:10:04;35.15;;;10.57;;
46551;SDS011;32278;51.810;4.712;2023-04-01T08:23:27;17.98;;;7.78;;
46551;SDS011;32278;51.810;4.712;2023-04-01T08:28:35;14.55;;;6.45;;
46551;SDS011;32278;51.810;4.712;2023-04-01T08:31:04;11.88;;;6.07;;
46551;SDS011;32278;51.810;4.712;2023-04-01T08:33:31;13.25;;;6.20;;
46551;SDS011;32278;51.810;4.712;2023-04-01T08:38:36;10.75;;;5.15;;
46551;SDS011;32278;51.810;4.712;2023-04-01T08:46:33;11.52;;;6.28;;
46551;SDS011;32278;51.810;4.712;2023-04-01T08:49:04;16.20;;;6.70;;
46551;SDS011;32278;51.810;4.712;2023-04-01T08:56:47;19.95;;;9.45;;
46551;SDS011;32278;51.810;4.712;2023-04-01T09:07:20;19.88;;;7.82;;
46551;SDS011;32278;51.810;4.712;2023-04-01T09:22:17;20.05;;;8.00;;
46551;SDS011;32278;51.810;4.712;2023-04-01T09:25:02;17.83;;;8.10;;
46551;SDS011;32278;51.810;4.712;2023-04-01T09:27:52;16.17;;;7.57;;
46551;SDS011;32278;51.810;4.712;2023-04-01T09:33:11;15.93;;;6.78;;
46551;SDS011;32278;51.810;4.712;2023-04-01T09:35:46;21.92;;;8.75;;
46551;SDS011;32278;51.810;4.712;2023-04-01T09:40:58;17.55;;;7.90;;
46551;SDS011;32278;51.810;4.712;2023-04-01T09:46:22;19.38;;;7.97;;
46551;SDS011;32278;51.810;4.712;2023-04-01T09:49:00;19.40;;;8.35;;
46551;SDS011;32278;51.810;4.712;2023-04-01T09:51:33;17.27;;;6.53;;
46551;SDS011;32278;51.810;4.712;2023-04-01T09:54:18;13.50;;;6.18;;
46551;SDS011;32278;51.810;4.712;2023-04-01T10:07:11;18.60;;;6.68;;
46551;SDS011;32278;51.810;4.712;2023-04-01T10:23:07;26.75;;;8.95;;
46551;SDS011;32278;51.810;4.712;2023-04-01T10:33:37;20.15;;;7.65;;
46551;SDS011;32278;51.810;4.712;2023-04-01T10:49:02;24.85;;;8.13;;
46551;SDS011;32278;51.810;4.712;2023-04-01T10:54:47;17.45;;;6.75;;
46551;SDS011;32278;51.810;4.712;2023-04-01T10:57:20;13.80;;;5.88;;
46551;SDS011;32278;51.810;4.712;2023-04-01T11:02:42;11.18;;;4.78;;
46551;SDS011;32278;51.810;4.712;2023-04-01T11:10:48;11.05;;;4.93;;
46551;SDS011;32278;51.810;4.712;2023-04-01T11:13:27;7.37;;;4.20;;
46551;SDS011;32278;51.810;4.712;2023-04-01T11:18:49;11.82;;;6.22;;
46551;SDS011;32278;51.810;4.712;2023-04-01T11:34:43;9.98;;;5.50;;
46551;SDS011;32278;51.810;4.712;2023-04-01T11:37:26;11.05;;;4.13;;
46551;SDS011;32278;51.810;4.712;2023-04-01T11:39:59;9.73;;;3.50;;
46551;SDS011;32278;51.810;4.712;2023-04-01T11:42:46;14.75;;;3.90;;
46551;SDS011;32278;51.810;4.712;2023-04-01T11:45:16;10.85;;;3.70;;
46551;SDS011;32278;51.810;4.712;2023-04-01T12:06:19;14.05;;;5.55;;
46551;SDS011;32278;51.810;4.712;2023-04-01T12:08:52;16.80;;;5.38;;
46551;SDS011;32278;51.810;4.712;2023-04-01T12:14:12;16.13;;;5.90;;
46551;SDS011;32278;51.810;4.712;2023-04-01T12:24:44;13.85;;;5.60;;
46551;SDS011;32278;51.810;4.712;2023-04-01T12:48:04;24.00;;;8.13;;
46551;SDS011;32278;51.810;4.712;2023-04-01T12:53:33;21.75;;;7.85;;
46551;SDS011;32278;51.810;4.712;2023-04-01T12:56:06;23.02;;;7.88;;
46551;SDS011;32278;51.810;4.712;2023-04-01T13:01:09;23.52;;;9.07;;
46551;SDS011;32278;51.810;4.712;2023-04-01T13:14:14;18.38;;;8.57;;
46551;SDS011;32278;51.810;4.712;2023-04-01T13:16:49;25.50;;;9.23;;
46551;SDS011;32278;51.810;4.712;2023-04-01T13:27:20;14.32;;;7.10;;
46551;SDS011;32278;51.810;4.712;2023-04-01T13:30:34;23.33;;;7.68;;
46551;SDS011;32278;51.810;4.712;2023-04-01T13:37:45;18.83;;;7.93;;
46551;SDS011;32278;51.810;4.712;2023-04-01T13:42:41;16.40;;;7.15;;
46551;SDS011;32278;51.810;4.712;2023-04-01T13:45:12;19.35;;;6.95;;
46551;SDS011;32278;51.810;4.712;2023-04-01T13:55:45;19.48;;;7.75;;
46551;SDS011;32278;51.810;4.712;2023-04-01T13:58:20;21.48;;;7.68;;
46551;SDS011;32278;51.810;4.712;2023-04-01T14:08:41;20.35;;;8.88;;
46551;SDS011;32278;51.810;4.712;2023-04-01T14:13:59;23.30;;;9.38;;
46551;SDS011;32278;51.810;4.712;2023-04-01T14:21:37;25.20;;;9.90;;
46551;SDS011;32278;51.810;4.712;2023-04-01T14:26:35;25.30;;;9.02;;
46551;SDS011;32278;51.810;4.712;2023-04-01T14:34:15;28.25;;;10.40;;
46551;SDS011;32278;51.810;4.712;2023-04-01T14:41:51;24.70;;;10.82;;
46551;SDS011;32278;51.810;4.712;2023-04-01T14:44:37;23.52;;;10.65;;
46551;SDS011;32278;51.810;4.712;2023-04-01T14:47:21;29.70;;;10.13;;
46551;SDS011;32278;51.810;4.712;2023-04-01T14:49:51;23.40;;;9.27;;
46551;SDS011;32278;51.810;4.712;2023-04-01T14:55:36;22.08;;;9.27;;
46551;SDS011;32278;51.810;4.712;2023-04-01T14:58:11;17.55;;;8.15;;
46551;SDS011;32278;51.810;4.712;2023-04-01T15:00:48;20.63;;;8.25;;
46551;SDS011;32278;51.810;4.712;2023-04-01T15:05:47;22.48;;;10.30;;
46551;SDS011;32278;51.810;4.712;2023-04-01T15:08:16;22.92;;;8.77;;
46551;SDS011;32278;51.810;4.712;2023-04-01T15:16:09;17.83;;;9.07;;
46551;SDS011;32278;51.810;4.712;2023-04-01T15:18:51;17.45;;;9.45;;
46551;SDS011;32278;51.810;4.712;2023-04-01T15:23:51;11.95;;;7.45;;
46551;SDS011;32278;51.810;4.712;2023-04-01T15:26:22;14.55;;;7.45;;
46551;SDS011;32278;51.810;4.712;2023-04-01T15:29:39;23.42;;;8.25;;
46551;SDS011;32278;51.810;4.712;2023-04-01T15:31:45;18.05;;;8.38;;
46551;SDS011;32278;51.810;4.712;2023-04-01T15:34:18;20.08;;;8.23;;
46551;SDS011;32278;51.810;4.712;2023-04-01T15:39:24;23.50;;;8.13;;
46551;SDS011;32278;51.810;4.712;2023-04-01T15:44:52;21.73;;;9.73;;
46551;SDS011;32278;51.810;4.712;2023-04-01T15:49:52;18.95;;;7.95;;
46551;SDS011;32278;51.810;4.712;2023-04-01T15:52:23;15.70;;;7.73;;
46551;SDS011;32278;51.810;4.712;2023-04-01T15:54:57;16.85;;;7.03;;
46551;SDS011;32278;51.810;4.712;2023-04-01T16:00:22;20.70;;;9.98;;
46551;SDS011;32278;51.810;4.712;2023-04-01T16:02:51;17.77;;;8.52;;
46551;SDS011;32278;51.810;4.712;2023-04-01T16:15:42;16.98;;;8.15;;
46551;SDS011;32278;51.810;4.712;2023-04-01T16:26:01;18.17;;;9.02;;
46551;SDS011;32278;51.810;4.712;2023-04-01T16:28:31;15.95;;;8.75;;
46551;SDS011;32278;51.810;4.712;2023-04-01T16:33:49;18.17;;;8.30;;
46551;SDS011;32278;51.810;4.712;2023-04-01T16:36:32;15.40;;;8.30;;
46551;SDS011;32278;51.810;4.712;2023-04-01T16:41:36;18.13;;;8.82;;
46551;SDS011;32278;51.810;4.712;2023-04-01T16:44:10;17.45;;;8.32;;
46551;SDS011;32278;51.810;4.712;2023-04-01T16:46:39;15.63;;;8.48;;
46551;SDS011;32278;51.810;4.712;2023-04-01T16:49:17;14.45;;;7.55;;
46551;SDS011;32278;51.810;4.712;2023-04-01T16:56:56;12.75;;;6.63;;
46551;SDS011;32278;51.810;4.712;2023-04-01T16:59:38;9.98;;;5.90;;
46551;SDS011;32278;51.810;4.712;2023-04-01T17:12:35;14.88;;;8.10;;
46551;SDS011;32278;51.810;4.712;2023-04-01T17:17:51;16.73;;;9.35;;
46551;SDS011;32278;51.810;4.712;2023-04-01T17:23:04;16.63;;;8.98;;
46551;SDS011;32278;51.810;4.712;2023-04-01T17:25:35;18.27;;;8.80;;
46551;SDS011;32278;51.810;4.712;2023-04-01T17:28:23;16.63;;;7.70;;
46551;SDS011;32278;51.810;4.712;2023-04-01T17:36:12;14.27;;;7.13;;
46551;SDS011;32278;51.810;4.712;2023-04-01T17:38:49;12.18;;;7.18;;
46551;SDS011;32278;51.810;4.712;2023-04-01T17:42:00;11.10;;;6.78;;
46551;SDS011;32278;51.810;4.712;2023-04-01T17:51:51;10.43;;;5.93;;
46551;SDS011;32278;51.810;4.712;2023-04-01T17:57:07;10.43;;;5.53;;
46551;SDS011;32278;51.810;4.712;2023-04-01T18:02:10;7.50;;;4.75;;
46551;SDS011;32278;51.810;4.712;2023-04-01T18:07:14;7.22;;;5.03;;
46551;SDS011;32278;51.810;4.712;2023-04-01T18:14:48;8.13;;;5.40;;
46551;SDS011;32278;51.810;4.712;2023-04-01T18:22:57;8.50;;;5.20;;
46551;SDS011;32278;51.810;4.712;2023-04-01T18:25:37;12.20;;;5.60;;
46551;SDS011;32278;51.810;4.712;2023-04-01T18:30:39;8.93;;;6.20;;
46551;SDS011;32278;51.810;4.712;2023-04-01T18:33:09;8.73;;;5.82;;
46551;SDS011;32278;51.810;4.712;2023-04-01T18:38:31;9.57;;;5.78;;
46551;SDS011;32278;51.810;4.712;2023-04-01T18:41:15;9.23;;;6.15;;
46551;SDS011;32278;51.810;4.712;2023-04-01T18:43:43;9.77;;;6.22;;
46551;SDS011;32278;51.810;4.712;2023-04-01T18:46:30;9.48;;;5.80;;
46551;SDS011;32278;51.810;4.712;2023-04-01T18:49:05;9.32;;;5.22;;
46551;SDS011;32278;51.810;4.712;2023-04-01T18:54:02;8.30;;;5.05;;
46551;SDS011;32278;51.810;4.712;2023-04-01T18:59:03;7.15;;;4.45;;
46551;SDS011;32278;51.810;4.712;2023-04-01T19:01:36;7.45;;;4.70;;
46551;SDS011;32278;51.810;4.712;2023-04-01T19:06:57;9.38;;;5.75;;
46551;SDS011;32278;51.810;4.712;2023-04-01T19:09:58;10.15;;;5.85;;
46551;SDS011;32278;51.810;4.712;2023-04-01T19:17:52;11.13;;;6.25;;
46551;SDS011;32278;51.810;4.712;2023-04-01T19:20:24;10.27;;;6.28;;
46551;SDS011;32278;51.810;4.712;2023-04-01T19:30:51;9.60;;;5.75;;
46551;SDS011;32278;51.810;4.712;2023-04-01T19:34:02;10.50;;;6.63;;
46551;SDS011;32278;51.810;4.712;2023-04-01T19:36:13;9.75;;;6.07;;
46551;SDS011;32278;51.810;4.712;2023-04-01T19:38:50;11.52;;;6.30;;
46551;SDS011;32278;51.810;4.712;2023-04-01T19:41:51;11.43;;;6.82;;
46551;SDS011;32278;51.810;4.712;2023-04-01T19:49:30;10.45;;;6.65;;
46551;SDS011;32278;51.810;4.712;2023-04-01T19:52:03;10.35;;;6.82;;
46551;SDS011;32278;51.810;4.712;2023-04-01T19:54:43;9.77;;;6.60;;
46551;SDS011;32278;51.810;4.712;2023-04-01T20:04:51;9.55;;;6.22;;
46551;SDS011;32278;51.810;4.712;2023-04-01T20:07:24;9.57;;;6.38;;
46551;SDS011;32278;51.810;4.712;2023-04-01T20:12:29;10.32;;;7.15;;
46551;SDS011;32278;51.810;4.712;2023-04-01T20:15:02;9.50;;;7.00;;
46551;SDS011;32278;51.810;4.712;2023-04-01T20:17:32;10.80;;;6.53;;
46551;SDS011;32278;51.810;4.712;2023-04-01T20:22:36;10.20;;;6.63;;
46551;SDS011;32278;51.810;4.712;2023-04-01T20:38:26;14.07;;;8.65;;
46551;SDS011;32278;51.810;4.712;2023-04-01T20:41:12;16.23;;;8.73;;
46551;SDS011;32278;51.810;4.712;2023-04-01T20:43:58;14.48;;;8.90;;
46551;SDS011;32278;51.810;4.712;2023-04-01T21:02:16;17.58;;;9.70;;
46551;SDS011;32278;51.810;4.712;2023-04-01T21:07:25;12.60;;;8.18;;
46551;SDS011;32278;51.810;4.712;2023-04-01T21:15:17;12.38;;;8.02;;
46551;SDS011;32278;51.810;4.712;2023-04-01T21:18:47;13.05;;;7.78;;
46551;SDS011;32278;51.810;4.712;2023-04-01T21:28:33;13.38;;;8.23;;
46551;SDS011;32278;51.810;4.712;2023-04-01T21:43:54;13.98;;;8.50;;
46551;SDS011;32278;51.810;4.712;2023-04-01T21:57:10;17.15;;;9.30;;
46551;SDS011;32278;51.810;4.712;2023-04-01T22:02:29;17.05;;;8.73;;
46551;SDS011;32278;51.810;4.712;2023-04-01T22:05:06;14.32;;;9.23;;
46551;SDS011;32278;51.810;4.712;2023-04-01T22:07:36;13.77;;;8.80;;
46551;SDS011;32278;51.810;4.712;2023-04-01T22:12:40;13.65;;;8.85;;
46551;SDS011;32278;51.810;4.712;2023-04-01T22:17:48;12.52;;;8.38;;
46551;SDS011;32278;51.810;4.712;2023-04-01T22:28:01;14.45;;;7.82;;
46551;SDS011;32278;51.810;4.712;2023-04-01T22:30:31;12.13;;;7.78;;
46551;SDS011;32278;51.810;4.712;2023-04-01T22:33:07;11.73;;;7.53;;
46551;SDS011;32278;51.810;4.712;2023-04-01T22:35:40;11.35;;;6.18;;
46551;SDS011;32278;51.810;4.712;2023-04-01T22:38:12;14.07;;;7.20;;
46551;SDS011;32278;51.810;4.712;2023-04-01T22:40:56;13.90;;;7.40;;
46551;SDS011;32278;51.810;4.712;2023-04-01T22:43:29;12.35;;;7.85;;
46551;SDS011;32278;51.810;4.712;2023-04-01T22:51:13;13.55;;;8.70;;
46551;SDS011;32278;51.810;4.712;2023-04-01T22:56:23;13.80;;;8.13;;
46551;SDS011;32278;51.810;4.712;2023-04-01T22:58:55;15.60;;;8.95;;
46551;SDS011;32278;51.810;4.712;2023-04-01T23:01:27;12.18;;;7.90;;
46551;SDS011;32278;51.810;4.712;2023-04-01T23:03:54;11.98;;;7.93;;
46551;SDS011;32278;51.810;4.712;2023-04-01T23:06:26;13.25;;;8.30;;
46551;SDS011;32278;51.810;4.712;2023-04-01T23:14:14;12.55;;;7.72;;
46551;SDS011;32278;51.810;4.712;2023-04-01T23:16:45;14.63;;;7.78;;
46551;SDS011;32278;51.810;4.712;2023-04-01T23:19:17;12.90;;;8.05;;
46551;SDS011;32278;51.810;4.712;2023-04-01T23:21:49;15.35;;;9.05;;
46551;SDS011;32278;51.810;4.712;2023-04-01T23:24:21;13.00;;;7.75;;
46551;SDS011;32278;51.810;4.712;2023-04-01T23:27:03;18.25;;;9.05;;
46551;SDS011;32278;51.810;4.712;2023-04-01T23:29:31;15.63;;;8.13;;
46551;SDS011;32278;51.810;4.712;2023-04-01T23:32:01;12.02;;;7.82;;
46551;SDS011;32278;51.810;4.712;2023-04-01T23:34:34;15.02;;;8.65;;
46551;SDS011;32278;51.810;4.712;2023-04-01T23:37:02;16.08;;;8.63;;
46551;SDS011;32278;51.810;4.712;2023-04-01T23:39:32;15.60;;;8.48;;
46551;SDS011;32278;51.810;4.712;2023-04-01T23:42:07;13.00;;;8.30;;
46551;SDS011;32278;51.810;4.712;2023-04-01T23:44:38;13.63;;;7.97;;
46551;SDS011;32278;51.810;4.712;2023-04-01T23:47:05;13.73;;;8.25;;
46551;SDS011;32278;51.810;4.712;2023-04-01T23:49:35;13.00;;;8.23;;
46551;SDS011;32278;51.810;4.712;2023-04-01T23:52:13;15.63;;;8.43;;
46551;SDS011;32278;51.810;4.712;2023-04-01T23:54:51;18.27;;;9.18;;
46551;SDS011;32278;51.810;4.712;2023-04-01T23:57:18;12.13;;;8.90;;
46551;SDS011;32278;51.810;4.712;2023-04-01T23:59:58;15.23;;;7.90;;
